Latest Weather Observations for Telfer

IDW60801

Issued at 12:32 pm WST Tuesday 3 March 2015 (issued every 30 minutes, with the page automatically refreshed every 10 minutes)

About weather observations | Map of weather stations | Latest weather observations for WA | Other Formats
Station Details ID: 013030 Name: TELFER AERO Lat: -21.71 Lon: 122.23 Height: 291.9 m
Data from the previous 72 hours. | See also: Recent months at Telfer
Date/Time
WST
Temp
°C
App
Temp
°C
Dew
Point
Rel
Hum
%
Delta-T
°C
Wind Press
QNH
hPa
Press
MSL
hPa
Rain
since 9 am
mm
Dir
 
Spd
km/h
Gust
km/h
Spd
kts
Gust
kts
03/12:30pm 36.3 35.1 17.0 32 12.6 ESE 19 30 10 16 1009.2 1007.0 0.0
03/12:00pm 35.4 34.0 17.1 33 11.9 E 20 32 11 17 1009.8 1007.5 0.0
03/11:30am 34.6 33.5 17.8 37 11.0 ENE 20 30 11 16 1010.3 1008.0 0.0
03/11:00am 33.8 32.4 17.9 38 10.4 E 22 32 12 17 1010.5 1008.2 0.0
03/10:30am 33.4 31.4 18.3 40 9.9 E 26 35 14 19 1011.0 1008.7 0.0
03/10:00am 32.5 31.1 18.7 44 9.1 ESE 24 37 13 20 1011.2 1009.0 0.0
03/09:30am 31.9 30.1 18.8 45 8.6 E 26 37 14 20 1011.4 1009.2 0.0
03/09:00am 30.1 29.4 19.5 53 7.0 ESE 22 32 12 17 1011.4 1009.2 1.4
03/08:30am 28.2 27.1 20.2 62 5.3 ESE 26 33 14 18 1011.5 1009.3 1.2
03/08:00am 26.8 26.2 20.6 69 4.1 ESE 24 30 13 16 1011.6 1009.4 1.2
03/07:30am 25.6 26.5 21.5 78 2.8 SE 19 24 10 13 1011.6 1009.4 1.2
03/07:00am 24.5 26.3 21.8 85 1.8 SE 15 20 8 11 1011.4 1009.2 1.2
03/06:30am 23.8 25.5 21.7 88 1.4 SE 15 19 8 10 1011.2 1009.0 1.2
03/06:00am 23.4 25.9 21.8 91 1.1 SE 11 13 6 7 1010.9 1008.6 1.2
03/05:30am 23.6 26.0 21.5 88 1.4 SE 11 15 6 8 1010.5 1008.2 1.2
03/05:00am 23.8 25.6 21.1 85 1.8 ESE 13 19 7 10 1010.2 1007.9 1.2
03/04:30am 23.9 25.4 21.2 85 1.8 ESE 15 19 8 10 1010.0 1007.7 1.2
03/04:00am 24.0 25.8 21.9 88 1.4 ESE 15 19 8 10 1009.7 1007.4 1.2
03/03:30am 24.3 26.7 22.2 88 1.4 ESE 13 17 7 9 1009.3 1007.1 1.2
03/03:00am 24.5 25.7 22.2 87 1.6 ESE 19 22 10 12 1009.1 1006.9 1.2
03/02:30am 24.7 26.7 22.9 90 1.2 ESE 17 22 9 12 1009.3 1007.1 1.2
03/02:00am 24.8 26.8 23.0 90 1.2 ESE 17 22 9 12 1009.2 1007.0 1.2
03/01:30am 24.8 26.8 23.0 90 1.2 ESE 17 20 9 11 1009.8 1007.5 1.2
03/01:00am 25.0 27.4 22.9 88 1.4 ESE 15 20 8 11 1010.2 1007.9 1.2
03/12:30am 25.0 27.7 22.9 88 1.4 ESE 13 19 7 10 1010.4 1008.1 1.2
03/12:00am 25.3 27.1 22.6 85 1.8 SE 17 20 9 11 1010.5 1008.2 1.2
 
Date/Time
WST
Temp
°C
App
Temp
°C
Dew
Point
Rel
Hum
%
Delta-T
°C
Wind Press
QNH
hPa
Press
MSL
hPa
Rain
since 9 am
mm
Dir
 
Spd
km/h
Gust
km/h
Spd
kts
Gust
kts
02/11:30pm 25.3 27.1 22.6 85 1.8 SE 17 20 9 11 1010.5 1008.2 1.2
02/11:00pm 25.2 26.4 22.5 85 1.8 ESE 20 24 11 13 1010.4 1008.1 1.2
02/10:30pm 25.3 27.1 22.6 85 1.8 ESE 17 20 9 11 1010.6 1008.3 1.2
02/10:00pm 25.4 26.5 23.1 87 1.6 SE 22 28 12 15 1010.6 1008.3 1.2
02/09:30pm 25.7 26.4 23.6 88 1.4 SE 26 32 14 17 1010.4 1008.1 1.2
02/09:00pm 26.5 28.9 23.6 84 2.0 SE 17 24 9 13 1010.6 1008.3 1.0
02/08:30pm 27.0 29.7 24.1 84 2.0 SSE 17 22 9 12 1009.7 1007.4 1.0
02/08:00pm 27.1 31.5 24.4 85 1.9 SE 9 13 5 7 1008.0 1005.7 1.0
02/07:30pm 27.4 31.8 23.4 79 2.8 NW 6 9 3 5 1007.1 1004.8 1.0
02/07:00pm 27.0 31.2 24.1 84 2.0 N 9 11 5 6 1006.1 1003.8 1.0
02/06:30pm 26.9 30.7 23.4 81 2.4 NW 9 13 5 7 1006.0 1003.7 1.0
02/06:00pm 26.6 29.3 23.5 83 2.1 NNW 15 19 8 10 1006.0 1003.7 1.0
02/05:30pm 26.5 30.1 24.3 88 1.5 NNW 13 19 7 10 1006.6 1004.3 0.4
02/05:00pm 26.6 28.8 23.3 82 2.3 NNE 17 24 9 13 1006.2 1003.9 0.2
02/04:30pm 28.0 28.4 21.8 69 4.2 NE 22 32 12 17 1006.1 1003.8 0.2
02/04:00pm 28.4 27.6 21.7 67 4.5 ENE 28 41 15 22 1006.1 1003.8 0.2
02/03:30pm 26.5 23.2 22.6 79 2.7 ENE 44 69 24 37 1005.5 1003.3 0.2
02/03:11pm 30.1 29.3 20.1 55 6.7 NE 24 69 13 37 1005.1 1002.9 0.2
02/03:08pm 33.8 34.8 20.2 44 9.2 NNE 15 50 8 27 1005.4 1003.2 0.2
02/03:00pm 36.8 37.9 18.8 34 12.0 NNW 11 17 6 9 1004.7 1002.4 0.2
02/02:30pm 36.0 37.2 19.0 36 11.3 NNW 11 19 6 10 1004.9 1002.6 0.2
02/02:00pm 36.5 36.5 19.0 35 11.7 NNW 17 32 9 17 1005.2 1003.0 0.2
02/01:30pm 36.2 37.1 20.0 38 10.9 NW 15 24 8 13 1005.7 1003.5 0.2
02/01:00pm 35.8 36.3 19.3 38 11.1 NW 15 22 8 12 1006.4 1004.1 0.2
02/12:30pm 35.6 36.0 19.9 39 10.6 W 17 22 9 12 1006.4 1004.1 0.2
02/12:00pm 34.3 35.3 19.5 41 9.9 SW 13 24 7 13 1007.0 1004.7 0.2
02/11:30am 34.2 36.3 20.2 43 9.4 WSW 9 17 5 9 1007.8 1005.5 0.2
02/11:00am 34.3 35.8 20.6 44 9.3 WSW 13 22 7 12 1008.2 1006.0 0.2
02/10:30am 32.7 34.8 20.9 49 8.0 SW 11 17 6 9 1008.8 1006.6 0.2
02/10:00am 32.0 34.4 21.5 53 7.2 WSW 11 17 6 9 1008.9 1006.7 0.2
02/09:30am 31.7 33.5 21.8 55 6.8 WSW 15 20 8 11 1009.0 1006.8 0.0
02/09:00am 31.2 32.2 21.7 57 6.5 WSW 19 22 10 12 1009.0 1006.8 1.6
02/08:30am 29.9 31.3 21.8 62 5.5 WSW 17 22 9 12 1009.1 1006.9 1.6
02/08:00am 29.1 31.5 22.3 66 4.7 W 13 19 7 10 1009.2 1007.0 1.6
02/07:30am 28.3 30.6 22.8 72 3.8 W 15 19 8 10 1009.0 1006.8 1.6
02/07:00am 27.4 31.3 23.6 80 2.6 WNW 9 15 5 8 1008.7 1006.5 1.6
02/06:30am 26.5 29.6 23.6 84 2.0 WNW 13 17 7 9 1008.2 1006.0 1.6
02/06:00am 26.1 29.2 23.6 86 1.7 W 13 20 7 11 1007.6 1005.3 1.6
02/05:30am 26.2 28.8 23.3 84 2.0 W 15 20 8 11 1007.3 1005.0 1.6
02/05:00am 26.3 29.8 23.6 85 1.9 W 11 13 6 7 1007.1 1004.8 1.6
02/04:30am 26.0 30.3 24.2 90 1.3 WNW 9 11 5 6 1007.0 1004.7 1.6
02/04:00am 26.2 30.7 23.9 87 1.6 WNW 7 9 4 5 1007.0 1004.7 1.6
02/03:30am 26.3 30.4 24.0 87 1.6 WNW 9 11 5 6 1007.2 1004.9 1.6
02/03:00am 26.4 30.6 24.1 87 1.6 NW 9 9 5 5 1007.2 1004.9 1.6
02/02:30am 26.3 31.0 24.3 89 1.4 WNW 7 7 4 4 1007.2 1004.9 1.6
02/02:00am 26.2 31.1 24.4 90 1.3 WNW 6 9 3 5 1007.6 1005.3 1.6
02/01:30am 26.5 31.0 24.0 86 1.7 NW 7 11 4 6 1007.7 1005.4 1.6
02/01:00am 26.5 32.5 24.3 88 1.5 CALM 0 0 0 0 1007.7 1005.4 1.6
02/12:30am 26.6 32.7 24.4 88 1.5 CALM 0 0 0 0 1008.0 1005.7 1.6
02/12:00am 27.0 32.4 23.3 80 2.6 CALM 0 0 0 0 1008.0 1005.7 1.6
 
Date/Time
WST
Temp
°C
App
Temp
°C
Dew
Point
Rel
Hum
%
Delta-T
°C
Wind Press
QNH
hPa
Press
MSL
hPa
Rain
since 9 am
mm
Dir
 
Spd
km/h
Gust
km/h
Spd
kts
Gust
kts
01/11:30pm 27.6 32.2 22.5 74 3.5 SW 2 7 1 4 1008.0 1005.7 1.6
01/11:00pm 27.5 32.4 22.4 73 3.5 CALM 0 0 0 0 1007.9 1005.6 1.6
01/10:30pm 27.3 31.2 22.5 75 3.3 SW 6 9 3 5 1008.1 1005.9 1.6
01/10:00pm 27.0 32.2 22.8 78 2.9 CALM 0 0 0 0 1008.5 1006.3 1.6
01/09:30pm 27.4 31.8 22.1 73 3.6 WSW 2 7 1 4 1008.4 1006.2 1.6
01/09:00pm 27.8 31.7 21.8 70 4.1 WSW 4 7 2 4 1008.4 1006.2 1.6
01/08:30pm 27.9 30.0 21.7 69 4.2 WSW 13 13 7 7 1008.2 1006.0 1.6
01/08:00pm 27.9 30.2 21.4 67 4.4 W 11 13 6 7 1008.1 1005.9 1.6
01/07:30pm 28.1 32.2 23.2 74 3.4 WSW 7 9 4 5 1007.6 1005.3 1.6
01/07:00pm 28.5 31.4 22.5 70 4.1 WSW 11 17 6 9 1006.9 1004.6 1.6
01/06:30pm 28.4 32.8 23.8 76 3.2 WSW 7 9 4 5 1006.6 1004.3 1.6
01/06:00pm 28.5 32.9 24.5 79 2.8 NW 9 11 5 6 1007.0 1004.7 1.6
01/05:30pm 28.9 32.9 23.8 74 3.6 WNW 9 13 5 7 1006.6 1004.3 1.6
01/05:00pm 28.6 32.3 23.3 73 3.7 WSW 9 11 5 6 1006.0 1003.7 1.6
01/04:30pm 28.5 33.5 23.2 73 3.7 SSW 2 7 1 4 1005.7 1003.5 1.6
01/04:00pm 27.8 33.1 23.0 75 3.3 CALM 0 0 0 0 1006.7 1004.4 1.6
01/03:30pm 27.2 31.1 21.9 73 3.6 NE 4 9 2 5 1007.1 1004.8 1.6
01/03:00pm 27.8 29.8 22.3 72 3.8 NNE 15 26 8 14 1008.1 1005.9 1.6
01/02:30pm 28.2 31.4 23.1 74 3.5 WSW 11 19 6 10 1007.8 1005.5 1.6
01/02:00pm 27.7 28.5 22.4 73 3.6 WNW 22 30 12 16 1007.7 1005.4 0.8
01/01:36pm 28.1 29.8 23.0 74 3.5 W 19 52 10 28 1007.3 1005.0 0.4
01/01:34pm 30.3 32.7 22.2 62 5.5 W 13 37 7 20 1007.6 1005.3 0.0
01/01:30pm 33.2 35.4 20.4 47 8.6 SW 9 13 5 7 1007.5 1005.2 0.0
01/01:00pm 33.5 34.5 21.0 48 8.5 SSE 17 24 9 13 1007.9 1005.6 0.0
01/12:30pm 34.2 35.1 20.9 45 9.0 SSE 17 26 9 14 1008.3 1006.1 0.0
01/12:00pm 34.1 35.3 21.5 47 8.6 SSW 17 28 9 15 1008.6 1006.4 0.0
01/11:30am 33.4 35.0 21.5 49 8.1 SSE 15 22 8 12 1009.1 1006.9 0.0
01/11:00am 32.5 34.2 21.7 53 7.4 S 15 22 8 12 1010.0 1007.7 0.0
01/10:30am 31.5 33.3 21.9 56 6.6 SSE 15 22 8 12 1010.4 1008.1 0.0
01/10:00am 31.0 33.0 22.3 60 6.0 SSE 15 22 8 12 1011.0 1008.7 0.0
01/09:30am 30.0 32.5 22.4 63 5.2 SE 13 20 7 11 1011.3 1009.1 0.0
01/09:00am 29.7 31.7 22.9 67 4.7 SE 17 22 9 12 1011.1 1008.8 4.6
01/08:30am 28.9 31.4 22.4 68 4.5 SSE 13 17 7 9 1011.4 1009.2 4.6
01/08:00am 28.2 31.6 22.7 72 3.8 SE 9 15 5 8 1010.5 1008.2 4.6
01/07:30am 27.9 32.1 23.5 77 3.0 ESE 7 13 4 7 1010.4 1007.9 4.6
01/07:00am 26.6 31.3 24.3 87 1.6 E 7 11 4 6 1010.5 1008.0 4.6
01/06:30am 26.2 30.7 24.6 91 1.1 SE 9 13 5 7 1010.1 1007.6 4.6
01/06:00am 25.7 30.5 24.5 93 0.8 SSE 7 9 4 5 1010.0 1007.5 4.6
01/05:30am 25.6 30.4 24.2 92 1.0 E 6 7 3 4 1009.7 1007.2 4.6
01/05:00am 25.7 29.9 24.1 91 1.1 ESE 9 11 5 6 1009.2 1006.8 4.6
01/04:30am 25.7 29.9 24.1 91 1.1 SE 9 11 5 6 1008.9 1006.5 4.6
01/04:00am 25.6 29.6 24.4 93 0.8 ESE 11 15 6 8 1008.5 1006.1 4.6
01/03:30am 25.7 29.3 24.3 92 1.0 SE 13 17 7 9 1008.3 1005.9 4.6
01/03:00am 25.9 29.5 24.3 91 1.1 SSE 13 17 7 9 1008.4 1006.0 4.6
01/02:30am 26.4 29.8 23.3 83 2.1 SSE 11 17 6 9 1008.7 1006.3 4.6
01/02:00am 26.4 30.1 23.3 83 2.1 WSW 9 13 5 7 1008.0 1005.6 4.6
01/01:30am 26.2 30.3 23.9 87 1.6 W 9 13 5 7 1008.0 1005.6 4.6
01/01:00am 26.1 30.6 24.0 88 1.5 NW 7 11 4 6 1008.3 1005.9 4.6
01/12:30am 26.3 30.6 24.2 88 1.5 WNW 9 11 5 6 1008.5 1006.1 4.6
01/12:00am 26.1 30.3 24.1 89 1.4 NW 9 13 5 7 1008.5 1006.1 4.6
 
Date/Time
WST
Temp
°C
App
Temp
°C
Dew
Point
Rel
Hum
%
Delta-T
°C
Wind Press
QNH
hPa
Press
MSL
hPa
Rain
since 9 am
mm
Dir
 
Spd
km/h
Gust
km/h
Spd
kts
Gust
kts
28/11:30pm 26.0 30.0 23.7 87 1.6 NW 9 11 5 6 1008.4 1006.0 4.6
28/11:00pm 26.1 30.1 23.8 87 1.6 NW 9 13 5 7 1008.4 1006.0 4.6
28/10:30pm 26.1 30.6 24.0 88 1.5 NW 7 11 4 6 1008.6 1006.2 4.6
28/10:00pm 26.1 29.7 23.8 87 1.6 NNW 11 15 6 8 1008.4 1006.0 4.6
28/09:30pm 25.8 29.8 23.7 88 1.5 N 9 11 5 6 1008.7 1006.3 4.6
28/09:00pm 25.7 28.0 23.4 87 1.6 NNE 17 24 9 13 1009.3 1006.9 4.6
28/08:30pm 25.9 30.9 24.5 92 1.0 ESE 6 13 3 7 1008.7 1006.3 4.6
28/08:00pm 25.8 30.5 24.0 90 1.3 NE 6 11 3 6 1008.2 1005.8 4.2
28/07:30pm 25.6 29.6 23.8 90 1.2 NNE 9 15 5 8 1008.1 1005.7 4.2
28/07:00pm 25.5 27.9 23.7 90 1.2 NE 17 24 9 13 1008.6 1006.2 4.2
28/06:30pm 25.2 25.9 22.9 87 1.6 NNE 24 33 13 18 1008.7 1006.3 4.0
28/06:00pm 25.7 24.3 20.5 73 3.4 NNE 28 39 15 21 1008.0 1005.6 4.0
28/05:41pm 25.4 23.8 21.5 79 2.6 NNE 32 52 17 28 1007.5 1005.0 4.0
28/05:30pm 25.9 24.4 22.0 79 2.6 NNE 33 48 18 26 1007.7 1005.3 4.0
28/05:12pm 28.5 28.7 21.3 65 4.9 ENE 22 56 12 30 1007.0 1004.5 4.0
28/05:09pm 30.3 31.2 20.8 56 6.4 SE 17 44 9 24 1007.0 1004.5 4.0
28/05:00pm 33.0 36.5 21.8 51 7.7 SSW 6 9 3 5 1005.8 1003.4 4.0
28/04:30pm 32.2 33.5 22.3 56 6.8 S 19 22 10 12 1005.2 1002.8 4.0
28/04:00pm 33.9 34.8 22.0 49 8.2 SSW 20 30 11 16 1005.7 1003.3 4.0
28/03:30pm 33.7 32.7 20.5 46 8.9 S 26 39 14 21 1005.4 1003.0 4.0
28/03:28pm 33.7 32.7 21.2 48 8.5 S 28 46 15 25 1005.3 1002.9 4.0
28/03:17pm 33.2 31.2 20.0 45 8.9 S 30 61 16 33 1005.3 1002.9 4.0
28/03:16pm 32.7 30.9 19.6 46 8.7 SSW 28 46 15 25 1005.4 1003.0 4.0
28/03:13pm 34.3 35.2 22.0 48 8.5 SSW 20 41 11 22 1005.8 1003.4 4.0
28/03:00pm 36.1 38.3 22.6 45 9.4 WSW 15 19 8 10 1006.0 1003.5 4.0
28/02:30pm 34.3 36.9 22.0 48 8.5 WSW 11 15 6 8 1005.8 1003.4 3.8
28/02:00pm 31.9 32.4 22.6 58 6.4 WSW 24 32 13 17 1006.3 1003.8 3.8
28/01:30pm 33.5 34.4 21.6 49 8.2 W 19 24 10 13 1006.7 1004.2 0.0
28/01:18pm 33.8 33.4 20.9 46 8.8 W 24 46 13 25 1006.8 1004.3 0.0
28/01:14pm 33.3 33.9 21.1 48 8.3 WSW 19 46 10 25 1006.8 1004.3 0.0
28/01:00pm 35.6 36.8 19.9 39 10.6 ESE 13 20 7 11 1007.0 1004.5 0.0

Other Formats:

Comma delimited format used in spreadsheet applications
http://www.bom.gov.au/fwo/IDW60801/IDW60801.94319.axf

JavaScript Object Notation format (JSON) in row-major order
http://www.bom.gov.au/fwo/IDW60801/IDW60801.94319.json